sensor_id;sensor_type;location;lat;lon;timestamp;temperature;humidity
52397;DHT22;38322;53.108;6.308;2023-01-09T06:02:07;4.90;99.90
52397;DHT22;38322;53.108;6.308;2023-01-09T06:04:33;5.00;99.90
52397;DHT22;38322;53.108;6.308;2023-01-09T06:06:59;5.00;99.90
52397;DHT22;38322;53.108;6.308;2023-01-09T06:09:25;5.00;99.90
52397;DHT22;38322;53.108;6.308;2023-01-09T06:11:51;5.00;99.90
52397;DHT22;38322;53.108;6.308;2023-01-09T06:14:19;5.00;99.90
52397;DHT22;38322;53.108;6.308;2023-01-09T06:16:45;5.10;99.90
52397;DHT22;38322;53.108;6.308;2023-01-09T06:19:11;5.00;99.90
52397;DHT22;38322;53.108;6.308;2023-01-09T06:21:37;5.10;99.90
52397;DHT22;38322;53.108;6.308;2023-01-09T06:24:03;5.10;99.90
52397;DHT22;38322;53.108;6.308;2023-01-09T06:26:29;5.10;99.90
52397;DHT22;38322;53.108;6.308;2023-01-09T06:28:55;5.10;99.90
52397;DHT22;38322;53.108;6.308;2023-01-09T06:31:22;5.10;99.90
52397;DHT22;38322;53.108;6.308;2023-01-09T06:33:48;5.20;99.90
52397;DHT22;38322;53.108;6.308;2023-01-09T06:36:14;5.20;99.90
52397;DHT22;38322;53.108;6.308;2023-01-09T06:38:40;5.20;99.90
52397;DHT22;38322;53.108;6.308;2023-01-09T06:41:06;5.20;99.90
52397;DHT22;38322;53.108;6.308;2023-01-09T06:43:32;5.20;99.90
52397;DHT22;38322;53.108;6.308;2023-01-09T06:45:58;5.20;99.90
52397;DHT22;38322;53.108;6.308;2023-01-09T06:48:24;5.20;99.90
52397;DHT22;38322;53.108;6.308;2023-01-09T06:50:51;5.20;99.90
52397;DHT22;38322;53.108;6.308;2023-01-09T06:53:17;5.20;99.90
52397;DHT22;38322;53.108;6.308;2023-01-09T06:55:44;5.20;99.90
52397;DHT22;38322;53.108;6.308;2023-01-09T06:58:11;5.20;99.90
52397;DHT22;38322;53.108;6.308;2023-01-09T07:00:37;5.20;99.90
52397;DHT22;38322;53.108;6.308;2023-01-09T07:03:04;5.20;99.90
52397;DHT22;38322;53.108;6.308;2023-01-09T07:05:30;5.20;99.90
52397;DHT22;38322;53.108;6.308;2023-01-09T07:07:59;5.20;99.90
52397;DHT22;38322;53.108;6.308;2023-01-09T07:10:24;5.20;99.90
52397;DHT22;38322;53.108;6.308;2023-01-09T07:12:50;5.20;99.90
52397;DHT22;38322;53.108;6.308;2023-01-09T07:15:16;5.20;99.90
52397;DHT22;38322;53.108;6.308;2023-01-09T07:17:42;5.20;99.90
52397;DHT22;38322;53.108;6.308;2023-01-09T07:20:08;5.20;99.90
52397;DHT22;38322;53.108;6.308;2023-01-09T07:22:34;5.20;99.90
52397;DHT22;38322;53.108;6.308;2023-01-09T07:25:00;5.10;99.90
52397;DHT22;38322;53.108;6.308;2023-01-09T07:27:26;5.10;99.90
52397;DHT22;38322;53.108;6.308;2023-01-09T07:29:52;5.00;99.90
52397;DHT22;38322;53.108;6.308;2023-01-09T07:32:18;5.00;99.90
52397;DHT22;38322;53.108;6.308;2023-01-09T07:34:44;5.00;99.90
52397;DHT22;38322;53.108;6.308;2023-01-09T07:37:10;5.00;99.90
52397;DHT22;38322;53.108;6.308;2023-01-09T07:39:35;4.90;99.90
52397;DHT22;38322;53.108;6.308;2023-01-09T07:42:01;4.90;99.90
52397;DHT22;38322;53.108;6.308;2023-01-09T07:44:27;4.80;99.90
52397;DHT22;38322;53.108;6.308;2023-01-09T07:46:53;4.80;99.90
52397;DHT22;38322;53.108;6.308;2023-01-09T07:49:19;4.70;99.90
52397;DHT22;38322;53.108;6.308;2023-01-09T07:51:44;4.70;99.90
52397;DHT22;38322;53.108;6.308;2023-01-09T07:54:12;4.70;99.90
52397;DHT22;38322;53.108;6.308;2023-01-09T07:56:39;4.60;99.90
52397;DHT22;38322;53.108;6.308;2023-01-09T07:59:05;4.70;99.90
52397;DHT22;38322;53.108;6.308;2023-01-09T08:01:31;4.70;99.90
52397;DHT22;38322;53.108;6.308;2023-01-09T08:03:57;4.70;99.90
52397;DHT22;38322;53.108;6.308;2023-01-09T08:06:23;4.70;99.90
52397;DHT22;38322;53.108;6.308;2023-01-09T08:08:49;4.70;99.90
52397;DHT22;38322;53.108;6.308;2023-01-09T08:11:15;4.80;99.90
52397;DHT22;38322;53.108;6.308;2023-01-09T08:13:41;4.80;99.90
52397;DHT22;38322;53.108;6.308;2023-01-09T08:16:07;4.80;99.90
52397;DHT22;38322;53.108;6.308;2023-01-09T08:18:33;4.90;99.90
52397;DHT22;38322;53.108;6.308;2023-01-09T08:20:59;4.90;99.90
52397;DHT22;38322;53.108;6.308;2023-01-09T08:23:25;4.90;99.90
52397;DHT22;38322;53.108;6.308;2023-01-09T08:25:52;5.00;99.90
52397;DHT22;38322;53.108;6.308;2023-01-09T08:28:18;4.90;99.90
52397;DHT22;38322;53.108;6.308;2023-01-09T08:30:44;4.90;99.90
52397;DHT22;38322;53.108;6.308;2023-01-09T08:33:09;5.00;99.90
52397;DHT22;38322;53.108;6.308;2023-01-09T08:35:35;5.00;99.90
52397;DHT22;38322;53.108;6.308;2023-01-09T08:38:02;5.00;99.90
52397;DHT22;38322;53.108;6.308;2023-01-09T08:40:28;5.00;99.90
52397;DHT22;38322;53.108;6.308;2023-01-09T08:42:54;5.10;99.90
52397;DHT22;38322;53.108;6.308;2023-01-09T08:45:39;5.10;99.90
52397;DHT22;38322;53.108;6.308;2023-01-09T08:48:23;5.20;99.90
52397;DHT22;38322;53.108;6.308;2023-01-09T08:50:49;5.20;99.90
52397;DHT22;38322;53.108;6.308;2023-01-09T08:53:15;5.20;99.90
52397;DHT22;38322;53.108;6.308;2023-01-09T08:55:41;5.30;99.90
52397;DHT22;38322;53.108;6.308;2023-01-09T08:58:07;5.30;99.90
52397;DHT22;38322;53.108;6.308;2023-01-09T09:00:33;5.40;99.90
52397;DHT22;38322;53.108;6.308;2023-01-09T09:03:00;5.40;99.90
52397;DHT22;38322;53.108;6.308;2023-01-09T09:05:27;5.40;99.90
52397;DHT22;38322;53.108;6.308;2023-01-09T09:07:54;5.40;99.90
52397;DHT22;38322;53.108;6.308;2023-01-09T09:10:21;5.40;99.90
52397;DHT22;38322;53.108;6.308;2023-01-09T09:12:49;5.40;99.90
52397;DHT22;38322;53.108;6.308;2023-01-09T09:15:15;5.40;99.90
52397;DHT22;38322;53.108;6.308;2023-01-09T09:17:44;5.40;99.90
52397;DHT22;38322;53.108;6.308;2023-01-09T09:20:13;5.40;99.90
52397;DHT22;38322;53.108;6.308;2023-01-09T09:22:39;5.50;99.90
52397;DHT22;38322;53.108;6.308;2023-01-09T09:25:05;5.50;99.90
52397;DHT22;38322;53.108;6.308;2023-01-09T09:27:31;5.50;99.90
52397;DHT22;38322;53.108;6.308;2023-01-09T09:29:57;5.50;99.90
52397;DHT22;38322;53.108;6.308;2023-01-09T09:32:23;5.60;99.90
52397;DHT22;38322;53.108;6.308;2023-01-09T09:34:48;5.70;99.90
52397;DHT22;38322;53.108;6.308;2023-01-09T09:37:14;5.70;99.90
52397;DHT22;38322;53.108;6.308;2023-01-09T09:39:40;5.80;99.90
52397;DHT22;38322;53.108;6.308;2023-01-09T09:42:14;5.80;99.90
52397;DHT22;38322;53.108;6.308;2023-01-09T09:45:15;5.80;99.90
52397;DHT22;38322;53.108;6.308;2023-01-09T09:53:18;5.90;99.90
52397;DHT22;38322;53.108;6.308;2023-01-09T09:55:47;5.90;99.90
52397;DHT22;38322;53.108;6.308;2023-01-09T10:00:54;6.00;99.90
52397;DHT22;38322;53.108;6.308;2023-01-09T10:03:28;6.10;99.90
52397;DHT22;38322;53.108;6.308;2023-01-09T10:05:57;6.10;99.90
52397;DHT22;38322;53.108;6.308;2023-01-09T10:11:00;6.10;99.90
52397;DHT22;38322;53.108;6.308;2023-01-09T10:13:26;6.10;99.90
52397;DHT22;38322;53.108;6.308;2023-01-09T10:16:24;6.20;99.90
52397;DHT22;38322;53.108;6.308;2023-01-09T10:21:40;6.20;99.90
52397;DHT22;38322;53.108;6.308;2023-01-09T10:24:21;6.20;99.90
52397;DHT22;38322;53.108;6.308;2023-01-09T10:26:51;6.30;99.90
52397;DHT22;38322;53.108;6.308;2023-01-09T10:29:39;6.30;99.90
52397;DHT22;38322;53.108;6.308;2023-01-09T10:32:19;6.30;99.90
52397;DHT22;38322;53.108;6.308;2023-01-09T10:35:28;6.30;99.90
52397;DHT22;38322;53.108;6.308;2023-01-09T10:37:59;6.40;99.90
52397;DHT22;38322;53.108;6.308;2023-01-09T10:40:31;6.40;99.90
52397;DHT22;38322;53.108;6.308;2023-01-09T10:43:06;6.40;99.90
52397;DHT22;38322;53.108;6.308;2023-01-09T10:45:46;6.40;99.90
52397;DHT22;38322;53.108;6.308;2023-01-09T10:48:31;6.40;99.90
52397;DHT22;38322;53.108;6.308;2023-01-09T10:50:58;6.50;99.90
52397;DHT22;38322;53.108;6.308;2023-01-09T10:53:33;6.50;99.90
52397;DHT22;38322;53.108;6.308;2023-01-09T10:56:06;6.50;99.90
52397;DHT22;38322;53.108;6.308;2023-01-09T10:58:33;6.50;99.90
52397;DHT22;38322;53.108;6.308;2023-01-09T11:00:59;6.50;99.90
52397;DHT22;38322;53.108;6.308;2023-01-09T11:03:27;6.40;99.90
52397;DHT22;38322;53.108;6.308;2023-01-09T11:05:56;6.40;99.90
52397;DHT22;38322;53.108;6.308;2023-01-09T11:08:37;6.40;99.90
52397;DHT22;38322;53.108;6.308;2023-01-09T11:11:08;6.40;99.90
52397;DHT22;38322;53.108;6.308;2023-01-09T11:13:35;6.40;99.90
52397;DHT22;38322;53.108;6.308;2023-01-09T11:16:15;6.40;99.90
52397;DHT22;38322;53.108;6.308;2023-01-09T11:18:54;6.30;99.90
52397;DHT22;38322;53.108;6.308;2023-01-09T11:21:36;6.30;99.90
52397;DHT22;38322;53.108;6.308;2023-01-09T11:26:51;6.30;99.90
52397;DHT22;38322;53.108;6.308;2023-01-09T11:29:19;6.30;99.90
52397;DHT22;38322;53.108;6.308;2023-01-09T11:31:54;6.30;99.90
52397;DHT22;38322;53.108;6.308;2023-01-09T11:34:23;6.30;99.90
52397;DHT22;38322;53.108;6.308;2023-01-09T11:36:51;6.30;99.90
52397;DHT22;38322;53.108;6.308;2023-01-09T11:39:23;6.40;99.90
52397;DHT22;38322;53.108;6.308;2023-01-09T11:41:53;6.40;99.90
52397;DHT22;38322;53.108;6.308;2023-01-09T11:44:20;6.40;99.90
52397;DHT22;38322;53.108;6.308;2023-01-09T11:46:46;6.40;99.90
52397;DHT22;38322;53.108;6.308;2023-01-09T11:51:40;6.40;99.90
52397;DHT22;38322;53.108;6.308;2023-01-09T11:54:16;6.40;99.90
52397;DHT22;38322;53.108;6.308;2023-01-09T11:56:44;6.40;99.90
52397;DHT22;38322;53.108;6.308;2023-01-09T11:59:13;6.40;99.90
52397;DHT22;38322;53.108;6.308;2023-01-09T12:01:57;6.40;99.90
52397;DHT22;38322;53.108;6.308;2023-01-09T12:04:39;6.50;99.90
52397;DHT22;38322;53.108;6.308;2023-01-09T12:07:26;6.50;99.90
52397;DHT22;38322;53.108;6.308;2023-01-09T12:10:18;6.50;99.90
52397;DHT22;38322;53.108;6.308;2023-01-09T12:13:20;6.50;99.90
52397;DHT22;38322;53.108;6.308;2023-01-09T12:16:02;6.50;99.90
52397;DHT22;38322;53.108;6.308;2023-01-09T12:18:41;6.50;99.90
52397;DHT22;38322;53.108;6.308;2023-01-09T12:26:35;6.50;99.90
52397;DHT22;38322;53.108;6.308;2023-01-09T12:50:58;6.80;99.90
52397;DHT22;38322;53.108;6.308;2023-01-09T12:53:33;6.80;99.90
52397;DHT22;38322;53.108;6.308;2023-01-09T12:56:14;6.80;99.90
52397;DHT22;38322;53.108;6.308;2023-01-09T12:58:52;6.80;99.90
52397;DHT22;38322;53.108;6.308;2023-01-09T13:01:28;6.80;99.90
52397;DHT22;38322;53.108;6.308;2023-01-09T13:04:14;6.80;99.90
52397;DHT22;38322;53.108;6.308;2023-01-09T13:06:47;6.90;99.90
52397;DHT22;38322;53.108;6.308;2023-01-09T13:09:25;6.90;99.90
52397;DHT22;38322;53.108;6.308;2023-01-09T13:12:07;6.90;99.90
52397;DHT22;38322;53.108;6.308;2023-01-09T13:14:53;7.00;99.90
52397;DHT22;38322;53.108;6.308;2023-01-09T13:19:51;7.00;99.90
52397;DHT22;38322;53.108;6.308;2023-01-09T13:22:19;7.00;99.90
52397;DHT22;38322;53.108;6.308;2023-01-09T13:27:31;7.10;99.90
52397;DHT22;38322;53.108;6.308;2023-01-09T13:30:15;7.10;99.90
52397;DHT22;38322;53.108;6.308;2023-01-09T13:32:54;7.10;99.90
52397;DHT22;38322;53.108;6.308;2023-01-09T13:35:22;7.20;99.90
52397;DHT22;38322;53.108;6.308;2023-01-09T13:37:50;7.30;99.90
52397;DHT22;38322;53.108;6.308;2023-01-09T13:45:23;7.30;99.90
52397;DHT22;38322;53.108;6.308;2023-01-09T13:50:35;7.20;99.90
52397;DHT22;38322;53.108;6.308;2023-01-09T13:56:04;7.20;99.90
52397;DHT22;38322;53.108;6.308;2023-01-09T13:58:57;7.20;99.90
52397;DHT22;38322;53.108;6.308;2023-01-09T14:06:34;7.20;99.90
52397;DHT22;38322;53.108;6.308;2023-01-09T14:09:11;7.20;99.90
52397;DHT22;38322;53.108;6.308;2023-01-09T14:11:39;7.20;99.90
52397;DHT22;38322;53.108;6.308;2023-01-09T14:14:17;7.20;99.90
52397;DHT22;38322;53.108;6.308;2023-01-09T14:16:45;7.20;99.90
52397;DHT22;38322;53.108;6.308;2023-01-09T14:21:44;7.30;99.90
52397;DHT22;38322;53.108;6.308;2023-01-09T14:24:19;7.30;99.90
52397;DHT22;38322;53.108;6.308;2023-01-09T14:26:48;7.40;99.90
52397;DHT22;38322;53.108;6.308;2023-01-09T14:34:56;7.50;99.90
52397;DHT22;38322;53.108;6.308;2023-01-09T14:37:24;7.50;99.90
52397;DHT22;38322;53.108;6.308;2023-01-09T14:39:52;7.50;99.90
52397;DHT22;38322;53.108;6.308;2023-01-09T14:42:23;7.50;99.90
52397;DHT22;38322;53.108;6.308;2023-01-09T14:45:04;7.40;99.90
52397;DHT22;38322;53.108;6.308;2023-01-09T14:47:32;7.40;99.90
52397;DHT22;38322;53.108;6.308;2023-01-09T14:50:05;7.40;99.90
52397;DHT22;38322;53.108;6.308;2023-01-09T14:52:38;7.40;99.90
52397;DHT22;38322;53.108;6.308;2023-01-09T14:55:16;7.40;99.90
52397;DHT22;38322;53.108;6.308;2023-01-09T14:57:45;7.40;99.90
52397;DHT22;38322;53.108;6.308;2023-01-09T15:00:17;7.40;99.90
52397;DHT22;38322;53.108;6.308;2023-01-09T15:02:45;7.40;99.90
52397;DHT22;38322;53.108;6.308;2023-01-09T15:05:17;7.30;99.90
52397;DHT22;38322;53.108;6.308;2023-01-09T15:07:53;7.30;99.90
52397;DHT22;38322;53.108;6.308;2023-01-09T15:10:25;7.20;99.90
52397;DHT22;38322;53.108;6.308;2023-01-09T15:12:54;7.10;99.90
52397;DHT22;38322;53.108;6.308;2023-01-09T15:15:21;7.00;99.90
52397;DHT22;38322;53.108;6.308;2023-01-09T15:18:06;7.00;99.90
52397;DHT22;38322;53.108;6.308;2023-01-09T15:20:35;6.90;99.90
52397;DHT22;38322;53.108;6.308;2023-01-09T15:23:01;6.90;99.90
52397;DHT22;38322;53.108;6.308;2023-01-09T15:25:36;6.80;99.90
52397;DHT22;38322;53.108;6.308;2023-01-09T15:28:28;6.80;99.90
52397;DHT22;38322;53.108;6.308;2023-01-09T15:31:02;6.70;99.90
52397;DHT22;38322;53.108;6.308;2023-01-09T15:33:29;6.60;99.90
52397;DHT22;38322;53.108;6.308;2023-01-09T15:35:56;6.60;99.90
52397;DHT22;38322;53.108;6.308;2023-01-09T15:38:30;6.50;99.90
52397;DHT22;38322;53.108;6.308;2023-01-09T15:41:00;6.50;99.90
52397;DHT22;38322;53.108;6.308;2023-01-09T15:43:28;6.50;99.90
52397;DHT22;38322;53.108;6.308;2023-01-09T15:45:56;6.40;99.90
52397;DHT22;38322;53.108;6.308;2023-01-09T15:48:26;6.40;99.90
52397;DHT22;38322;53.108;6.308;2023-01-09T15:51:06;6.40;99.90
52397;DHT22;38322;53.108;6.308;2023-01-09T15:53:34;6.30;99.90
52397;DHT22;38322;53.108;6.308;2023-01-09T15:58:41;6.30;99.90
52397;DHT22;38322;53.108;6.308;2023-01-09T16:01:24;6.30;99.90
52397;DHT22;38322;53.108;6.308;2023-01-09T16:03:53;6.30;99.90
52397;DHT22;38322;53.108;6.308;2023-01-09T16:06:27;6.30;99.90
52397;DHT22;38322;53.108;6.308;2023-01-09T16:08:55;6.30;99.90
52397;DHT22;38322;53.108;6.308;2023-01-09T16:11:29;6.20;99.90
52397;DHT22;38322;53.108;6.308;2023-01-09T16:13:59;6.20;99.90
52397;DHT22;38322;53.108;6.308;2023-01-09T16:16:30;6.20;99.90
52397;DHT22;38322;53.108;6.308;2023-01-09T16:18:58;6.20;99.90
52397;DHT22;38322;53.108;6.308;2023-01-09T16:21:31;6.20;99.90
52397;DHT22;38322;53.108;6.308;2023-01-09T16:24:23;6.10;99.90
52397;DHT22;38322;53.108;6.308;2023-01-09T16:29:38;6.10;99.90
52397;DHT22;38322;53.108;6.308;2023-01-09T16:32:16;6.10;99.90
52397;DHT22;38322;53.108;6.308;2023-01-09T16:34:43;6.10;99.90
52397;DHT22;38322;53.108;6.308;2023-01-09T16:37:12;6.10;99.90
52397;DHT22;38322;53.108;6.308;2023-01-09T16:39:38;6.10;99.90
52397;DHT22;38322;53.108;6.308;2023-01-09T16:42:10;6.20;99.90
52397;DHT22;38322;53.108;6.308;2023-01-09T16:44:54;6.20;99.90
52397;DHT22;38322;53.108;6.308;2023-01-09T16:47:20;6.20;99.90
52397;DHT22;38322;53.108;6.308;2023-01-09T16:49:46;6.20;99.90
52397;DHT22;38322;53.108;6.308;2023-01-09T16:52:16;6.20;99.90
52397;DHT22;38322;53.108;6.308;2023-01-09T16:54:42;6.20;99.90
52397;DHT22;38322;53.108;6.308;2023-01-09T16:57:16;6.10;99.90
52397;DHT22;38322;53.108;6.308;2023-01-09T16:59:43;6.10;99.90
52397;DHT22;38322;53.108;6.308;2023-01-09T17:02:16;6.00;99.90
52397;DHT22;38322;53.108;6.308;2023-01-09T17:04:42;6.00;99.90
52397;DHT22;38322;53.108;6.308;2023-01-09T17:07:13;5.90;99.90
52397;DHT22;38322;53.108;6.308;2023-01-09T17:09:40;5.80;99.90
52397;DHT22;38322;53.108;6.308;2023-01-09T17:12:15;5.80;99.90
52397;DHT22;38322;53.108;6.308;2023-01-09T17:14:43;5.70;99.90
52397;DHT22;38322;53.108;6.308;2023-01-09T17:17:10;5.70;99.90
52397;DHT22;38322;53.108;6.308;2023-01-09T17:19:37;5.70;99.90
52397;DHT22;38322;53.108;6.308;2023-01-09T17:22:04;5.70;99.90
52397;DHT22;38322;53.108;6.308;2023-01-09T17:24:30;5.70;99.90
52397;DHT22;38322;53.108;6.308;2023-01-09T17:27:15;5.80;99.90
52397;DHT22;38322;53.108;6.308;2023-01-09T17:29:59;5.80;99.90
52397;DHT22;38322;53.108;6.308;2023-01-09T17:32:25;5.80;99.90
52397;DHT22;38322;53.108;6.308;2023-01-09T17:34:51;5.80;99.90
52397;DHT22;38322;53.108;6.308;2023-01-09T17:37:18;5.80;99.90
52397;DHT22;38322;53.108;6.308;2023-01-09T17:39:44;5.80;99.90
52397;DHT22;38322;53.108;6.308;2023-01-09T17:42:10;5.90;99.90
52397;DHT22;38322;53.108;6.308;2023-01-09T17:44:36;5.80;99.90
52397;DHT22;38322;53.108;6.308;2023-01-09T17:47:02;5.80;99.90
52397;DHT22;38322;53.108;6.308;2023-01-09T17:49:28;5.80;99.90
52397;DHT22;38322;53.108;6.308;2023-01-09T17:51:54;5.80;99.90
52397;DHT22;38322;53.108;6.308;2023-01-09T17:54:20;5.80;99.90
52397;DHT22;38322;53.108;6.308;2023-01-09T17:56:48;5.80;99.90
52397;DHT22;38322;53.108;6.308;2023-01-09T17:59:16;5.80;99.90
52397;DHT22;38322;53.108;6.308;2023-01-09T18:01:42;5.80;99.90
52397;DHT22;38322;53.108;6.308;2023-01-09T18:04:09;5.80;99.90
52397;DHT22;38322;53.108;6.308;2023-01-09T18:06:35;5.70;99.90
52397;DHT22;38322;53.108;6.308;2023-01-09T18:09:02;5.60;99.90
52397;DHT22;38322;53.108;6.308;2023-01-09T18:11:28;5.60;99.90
52397;DHT22;38322;53.108;6.308;2023-01-09T18:13:54;5.60;99.90
52397;DHT22;38322;53.108;6.308;2023-01-09T18:16:23;5.60;99.90
52397;DHT22;38322;53.108;6.308;2023-01-09T18:18:51;5.50;99.90
52397;DHT22;38322;53.108;6.308;2023-01-09T18:21:19;5.40;99.90
52397;DHT22;38322;53.108;6.308;2023-01-09T18:23:46;5.40;99.90
52397;DHT22;38322;53.108;6.308;2023-01-09T18:26:12;5.40;99.90
52397;DHT22;38322;53.108;6.308;2023-01-09T18:28:53;5.30;99.90
52397;DHT22;38322;53.108;6.308;2023-01-09T18:31:19;5.20;99.90
52397;DHT22;38322;53.108;6.308;2023-01-09T18:33:49;5.20;99.90
52397;DHT22;38322;53.108;6.308;2023-01-09T18:36:19;5.10;99.90
52397;DHT22;38322;53.108;6.308;2023-01-09T18:38:49;5.10;99.90
52397;DHT22;38322;53.108;6.308;2023-01-09T18:41:15;5.00;99.90
52397;DHT22;38322;53.108;6.308;2023-01-09T18:43:41;5.00;99.90
52397;DHT22;38322;53.108;6.308;2023-01-09T18:46:07;5.00;99.90
52397;DHT22;38322;53.108;6.308;2023-01-09T18:48:33;5.00;99.90
52397;DHT22;38322;53.108;6.308;2023-01-09T18:51:02;5.10;99.90
52397;DHT22;38322;53.108;6.308;2023-01-09T18:53:28;5.10;99.90
52397;DHT22;38322;53.108;6.308;2023-01-09T18:55:54;5.10;99.90
52397;DHT22;38322;53.108;6.308;2023-01-09T18:58:20;5.10;99.90
52397;DHT22;38322;53.108;6.308;2023-01-09T19:00:46;5.10;99.90
52397;DHT22;38322;53.108;6.308;2023-01-09T19:03:13;5.00;99.90
52397;DHT22;38322;53.108;6.308;2023-01-09T19:05:39;5.00;99.90
52397;DHT22;38322;53.108;6.308;2023-01-09T19:08:05;5.00;99.90
52397;DHT22;38322;53.108;6.308;2023-01-09T19:10:32;4.90;99.90
52397;DHT22;38322;53.108;6.308;2023-01-09T19:12:58;4.90;99.90
52397;DHT22;38322;53.108;6.308;2023-01-09T19:15:24;4.90;99.90
52397;DHT22;38322;53.108;6.308;2023-01-09T19:17:50;4.90;99.90
52397;DHT22;38322;53.108;6.308;2023-01-09T19:20:16;4.90;99.90
52397;DHT22;38322;53.108;6.308;2023-01-09T19:22:43;4.90;99.90
52397;DHT22;38322;53.108;6.308;2023-01-09T19:25:09;4.90;99.90
52397;DHT22;38322;53.108;6.308;2023-01-09T19:27:37;5.00;99.90
52397;DHT22;38322;53.108;6.308;2023-01-09T19:30:04;5.00;99.90
52397;DHT22;38322;53.108;6.308;2023-01-09T19:32:30;5.00;99.90
52397;DHT22;38322;53.108;6.308;2023-01-09T19:34:56;4.90;99.90
52397;DHT22;38322;53.108;6.308;2023-01-09T19:37:22;4.90;99.90
52397;DHT22;38322;53.108;6.308;2023-01-09T19:39:48;4.90;99.90
52397;DHT22;38322;53.108;6.308;2023-01-09T19:42:14;4.90;99.90
52397;DHT22;38322;53.108;6.308;2023-01-09T19:44:41;4.90;99.90
52397;DHT22;38322;53.108;6.308;2023-01-09T19:47:07;5.00;99.90
52397;DHT22;38322;53.108;6.308;2023-01-09T19:49:33;5.00;99.90
52397;DHT22;38322;53.108;6.308;2023-01-09T19:51:59;5.10;99.90
52397;DHT22;38322;53.108;6.308;2023-01-09T19:54:25;5.10;99.90
52397;DHT22;38322;53.108;6.308;2023-01-09T19:56:53;5.20;99.90
52397;DHT22;38322;53.108;6.308;2023-01-09T19:59:19;5.20;99.90
52397;DHT22;38322;53.108;6.308;2023-01-09T20:01:45;5.30;99.90
52397;DHT22;38322;53.108;6.308;2023-01-09T20:04:12;5.30;99.90
52397;DHT22;38322;53.108;6.308;2023-01-09T20:06:41;5.30;99.90
52397;DHT22;38322;53.108;6.308;2023-01-09T20:09:08;5.30;99.90
52397;DHT22;38322;53.108;6.308;2023-01-09T20:11:38;5.30;99.90
52397;DHT22;38322;53.108;6.308;2023-01-09T20:14:10;5.40;99.90
52397;DHT22;38322;53.108;6.308;2023-01-09T20:16:36;5.40;99.90
52397;DHT22;38322;53.108;6.308;2023-01-09T20:19:02;5.40;99.90
52397;DHT22;38322;53.108;6.308;2023-01-09T20:21:30;5.50;99.90
52397;DHT22;38322;53.108;6.308;2023-01-09T20:23:59;5.50;99.90
52397;DHT22;38322;53.108;6.308;2023-01-09T20:26:26;5.50;99.90
52397;DHT22;38322;53.108;6.308;2023-01-09T20:28:53;5.50;99.90
52397;DHT22;38322;53.108;6.308;2023-01-09T20:31:20;5.50;99.90
52397;DHT22;38322;53.108;6.308;2023-01-09T20:33:47;5.60;99.90
52397;DHT22;38322;53.108;6.308;2023-01-09T20:36:13;5.60;99.90
52397;DHT22;38322;53.108;6.308;2023-01-09T20:38:40;5.60;99.90
52397;DHT22;38322;53.108;6.308;2023-01-09T20:41:08;5.60;99.90
52397;DHT22;38322;53.108;6.308;2023-01-09T20:43:36;5.50;99.90
52397;DHT22;38322;53.108;6.308;2023-01-09T20:46:03;5.50;99.90
52397;DHT22;38322;53.108;6.308;2023-01-09T20:48:29;5.50;99.90
52397;DHT22;38322;53.108;6.308;2023-01-09T20:50:55;5.40;99.90
52397;DHT22;38322;53.108;6.308;2023-01-09T20:53:27;5.30;99.90
52397;DHT22;38322;53.108;6.308;2023-01-09T20:55:59;5.30;99.90
52397;DHT22;38322;53.108;6.308;2023-01-09T20:58:25;5.20;99.90
